Rustenburg, South Africa
Current Conditions -  °F | °C
As of 6:00 PM on Saturday 20 Dec 2014 (Local Time) from FALA Reporting Station
Few Clouds Few Clouds  
Wind Chill: 82°   Ceiling: Unl
Heat Index: 82°   Visibility: 6mi
Dew Point: 55°   Wind: 9mph
Humidity: 39%   Direction: 330°NNW
Pressure: 30"   Gusts: NA
Location:  25.65°S, 27.24°E
Report Text: FALA 201600Z 33008KT 9999 FEW045 28/13 Q1016 NOSIG
Loading
Personal Weather Stations






























Interactive Weather Map New forecast layout! Learn more

10-Day Weather Forecast

Advertisements
Track Severe Weather on mobile